createdAt,value
2022-11-24T00:01:07.681Z,13.23
2022-11-24T00:03:34.986Z,12.15
2022-11-24T00:06:07.576Z,12.38
2022-11-24T00:08:35.474Z,11.37
2022-11-24T00:11:08.360Z,10.77
2022-11-24T00:13:35.902Z,11.40
2022-11-24T00:16:06.748Z,11.45
2022-11-24T00:18:33.335Z,11.85
2022-11-24T00:20:59.920Z,10.75
2022-11-24T00:23:26.875Z,10.45
2022-11-24T00:25:53.537Z,11.30
2022-11-24T00:28:20.088Z,11.20
2022-11-24T00:30:46.747Z,11.68
2022-11-24T00:33:13.325Z,11.98
2022-11-24T00:35:39.861Z,12.25
2022-11-24T00:38:06.520Z,12.70
2022-11-24T00:40:35.099Z,12.07
2022-11-24T00:43:01.898Z,11.95
2022-11-24T00:45:28.414Z,10.93
2022-11-24T00:47:54.992Z,13.02
2022-11-24T00:50:21.528Z,12.73
2022-11-24T00:52:48.080Z,11.85
2022-11-24T00:55:14.755Z,12.00
2022-11-24T00:57:41.337Z,12.25
2022-11-24T01:00:08.632Z,15.00
2022-11-24T01:02:35.261Z,15.52
2022-11-24T01:05:03.354Z,15.30
2022-11-24T01:07:30.933Z,14.60
2022-11-24T01:09:57.577Z,14.65
2022-11-24T01:12:24.189Z,12.98
2022-11-24T01:14:50.773Z,13.60
2022-11-24T01:17:17.329Z,12.98
2022-11-24T01:19:43.880Z,13.43
2022-11-24T01:22:10.389Z,13.23
2022-11-24T01:24:36.950Z,13.15
2022-11-24T01:27:03.566Z,13.07
2022-11-24T01:29:30.246Z,12.55
2022-11-24T01:31:56.826Z,12.80
2022-11-24T01:34:23.372Z,11.60
2022-11-24T01:36:50.263Z,10.52
2022-11-24T01:39:16.798Z,10.95
2022-11-24T01:41:43.428Z,10.85
2022-11-24T01:44:23.529Z,12.35
2022-11-24T01:46:55.295Z,12.20
2022-11-24T01:49:26.937Z,11.93
2022-11-24T01:51:53.409Z,11.70
2022-11-24T01:54:50.011Z,11.85
2022-11-24T01:57:25.987Z,9.88
2022-11-24T01:59:57.499Z,10.98
2022-11-24T02:02:26.087Z,12.27
2022-11-24T02:04:53.362Z,11.18
2022-11-24T02:07:20.333Z,11.30
2022-11-24T02:09:59.133Z,10.95
2022-11-24T02:12:27.030Z,10.55
2022-11-24T02:14:54.945Z,9.20
2022-11-24T02:17:22.033Z,9.90
2022-11-24T02:20:04.035Z,10.25
2022-11-24T02:23:02.982Z,9.27
2022-11-24T02:25:46.838Z,10.48
2022-11-24T02:28:17.449Z,8.80
2022-11-24T02:30:44.619Z,9.80
2022-11-24T02:33:13.051Z,9.68
2022-11-24T02:35:40.019Z,9.23
2022-11-24T02:38:06.614Z,10.15
2022-11-24T02:40:33.473Z,10.80
2022-11-24T02:43:09.444Z,10.32
2022-11-24T02:45:35.996Z,11.77
2022-11-24T02:48:02.589Z,10.98
2022-11-24T02:50:29.132Z,9.80
2022-11-24T02:52:55.697Z,11.13
2022-11-24T02:55:23.510Z,11.73
2022-11-24T02:57:50.388Z,11.40
2022-11-24T03:00:17.604Z,13.30
2022-11-24T03:02:44.220Z,14.68
2022-11-24T03:05:12.402Z,12.73
2022-11-24T03:07:39.050Z,13.45
2022-11-24T03:10:06.465Z,13.20
2022-11-24T03:12:33.009Z,14.00
2022-11-24T03:14:59.681Z,14.85
2022-11-24T03:17:26.471Z,12.25
2022-11-24T03:19:53.017Z,13.07
2022-11-24T03:22:19.554Z,13.57
2022-11-24T03:24:46.156Z,12.90
2022-11-24T03:27:12.686Z,13.57
2022-11-24T03:29:39.313Z,14.50
2022-11-24T03:32:05.938Z,15.98
2022-11-24T03:34:32.891Z,15.30
2022-11-24T03:36:59.664Z,15.23
2022-11-24T03:39:26.231Z,13.80
2022-11-24T03:41:52.885Z,14.63
2022-11-24T03:44:19.462Z,18.45
2022-11-24T03:46:46.139Z,17.10
2022-11-24T03:49:12.729Z,16.75
2022-11-24T03:51:39.336Z,18.67
2022-11-24T03:54:06.787Z,19.67
2022-11-24T03:56:33.393Z,18.73
2022-11-24T03:58:59.986Z,18.98
2022-11-24T04:01:26.681Z,18.65
2022-11-24T04:03:53.296Z,18.83
2022-11-24T04:06:19.941Z,17.40
2022-11-24T04:08:46.501Z,17.02
2022-11-24T04:11:33.033Z,16.35
2022-11-24T04:13:59.597Z,16.98
2022-11-24T04:16:26.362Z,17.35
2022-11-24T04:18:53.655Z,17.15
2022-11-24T04:21:20.730Z,20.20
2022-11-24T04:23:47.485Z,20.27
2022-11-24T04:26:14.694Z,18.67
2022-11-24T04:28:41.305Z,18.92
2022-11-24T04:31:07.964Z,18.70
2022-11-24T04:33:34.546Z,19.48
2022-11-24T04:36:01.159Z,17.80
2022-11-24T04:39:22.783Z,23.27
2022-11-24T04:41:14.425Z,20.08
2022-11-24T04:43:41.058Z,18.50
2022-11-24T04:46:10.438Z,20.83
2022-11-24T04:48:37.274Z,27.88
2022-11-24T04:51:07.242Z,26.90
2022-11-24T04:53:33.799Z,21.05
2022-11-24T04:56:05.238Z,19.00
2022-11-24T04:58:31.953Z,22.67
2022-11-24T05:00:58.542Z,18.50
2022-11-24T05:03:25.152Z,17.33
2022-11-24T05:05:51.676Z,21.70
2022-11-24T05:08:18.252Z,17.88
2022-11-24T05:10:45.023Z,20.48
2022-11-24T05:13:13.160Z,20.92
2022-11-24T05:15:41.105Z,30.77
2022-11-24T05:18:11.047Z,29.75
2022-11-24T05:20:37.795Z,21.40
2022-11-24T05:23:06.541Z,18.90
2022-11-24T05:25:36.373Z,19.70
2022-11-24T05:28:05.629Z,18.92
2022-11-24T05:30:32.697Z,14.30
2022-11-24T05:32:59.337Z,12.57
2022-11-24T05:35:25.966Z,13.75
2022-11-24T05:37:52.586Z,13.43
2022-11-24T05:40:19.149Z,15.38
2022-11-24T05:42:48.135Z,15.70
2022-11-24T05:45:20.496Z,17.20
2022-11-24T05:47:47.902Z,19.52
2022-11-24T05:50:17.072Z,24.08
2022-11-24T05:52:43.863Z,26.92
2022-11-24T05:57:37.887Z,37.22
2022-11-24T06:00:07.218Z,32.13
2022-11-24T06:02:34.018Z,24.50
2022-11-24T06:05:00.793Z,19.48
2022-11-24T06:07:27.471Z,17.27
2022-11-24T06:09:54.104Z,13.70
2022-11-24T06:12:20.692Z,15.13
2022-11-24T06:14:47.300Z,16.25
2022-11-24T06:17:14.006Z,14.32
2022-11-24T06:19:42.295Z,11.27
2022-11-24T06:22:09.081Z,15.80
2022-11-24T06:24:35.877Z,13.63
2022-11-24T06:27:02.893Z,12.35
2022-11-24T06:29:29.472Z,14.18
2022-11-24T06:31:56.031Z,15.55
2022-11-24T06:34:22.642Z,9.30
2022-11-24T06:36:49.229Z,6.72
2022-11-24T06:39:15.830Z,7.20
2022-11-24T06:41:42.402Z,6.65
2022-11-24T06:44:09.079Z,7.88
2022-11-24T06:46:35.797Z,12.70
2022-11-24T06:49:02.532Z,8.52
2022-11-24T06:51:29.247Z,14.40
2022-11-24T06:53:55.969Z,17.80
2022-11-24T06:56:22.801Z,15.55
2022-11-24T06:58:52.173Z,9.93
2022-11-24T07:01:24.668Z,8.68
2022-11-24T07:03:52.590Z,9.17
2022-11-24T07:06:21.348Z,9.82
2022-11-24T07:08:48.602Z,9.60
2022-11-24T07:11:21.733Z,9.55
2022-11-24T07:13:48.827Z,9.93
2022-11-24T07:16:22.500Z,9.48
2022-11-24T07:18:51.630Z,12.95
2022-11-24T07:21:19.829Z,15.00
2022-11-24T07:23:53.861Z,14.10
2022-11-24T07:26:21.078Z,16.20
2022-11-24T07:28:48.101Z,15.13
2022-11-24T07:31:18.897Z,15.80
2022-11-24T07:33:50.029Z,13.88
2022-11-24T07:36:17.242Z,14.55
2022-11-24T07:38:44.158Z,15.90
2022-11-24T07:41:12.940Z,13.90
2022-11-24T07:43:39.875Z,15.40
2022-11-24T07:46:08.946Z,13.95
2022-11-24T07:48:35.698Z,13.90
2022-11-24T07:51:03.630Z,12.98
2022-11-24T07:53:31.342Z,12.55
2022-11-24T07:56:00.541Z,13.40
2022-11-24T07:58:33.284Z,12.40
2022-11-24T08:01:01.227Z,12.43
2022-11-24T08:03:28.078Z,11.85
2022-11-24T08:08:47.351Z,10.43
2022-11-24T08:11:16.233Z,9.65
2022-11-24T08:13:43.199Z,9.60
2022-11-24T08:16:17.901Z,10.07
2022-11-24T08:18:49.919Z,9.57
2022-11-24T08:21:16.597Z,9.10
2022-11-24T08:23:43.360Z,9.32
2022-11-24T08:26:16.065Z,9.63
2022-11-24T08:28:43.866Z,9.33
2022-11-24T08:31:13.512Z,10.00
2022-11-24T08:33:40.861Z,9.27
2022-11-24T08:36:10.352Z,9.70
2022-11-24T08:38:37.098Z,14.95
2022-11-24T08:41:12.415Z,11.60
2022-11-24T08:43:39.146Z,10.50
2022-11-24T08:46:08.356Z,9.90
2022-11-24T08:48:35.764Z,11.73
2022-11-24T08:51:10.656Z,8.48
2022-11-24T08:53:38.264Z,9.60
2022-11-24T08:56:05.910Z,7.95
2022-11-24T08:58:33.483Z,8.27
2022-11-24T09:01:16.679Z,7.95
2022-11-24T09:03:50.077Z,6.63
2022-11-24T09:06:23.594Z,7.25
2022-11-24T09:08:51.733Z,9.13
2022-11-24T09:11:18.410Z,6.40
2022-11-24T09:13:45.478Z,6.50
2022-11-24T09:16:15.179Z,6.82
2022-11-24T09:18:42.452Z,6.40
2022-11-24T09:21:20.020Z,6.28
2022-11-24T09:23:51.509Z,6.82
2022-11-24T09:26:23.299Z,6.18
2022-11-24T09:28:54.677Z,5.72
2022-11-24T09:31:26.590Z,5.15
2022-11-24T09:33:53.829Z,5.43
2022-11-24T09:36:21.587Z,4.95
2022-11-24T09:38:48.581Z,5.68
2022-11-24T09:41:15.188Z,5.95
2022-11-24T09:43:58.781Z,5.38
2022-11-24T09:46:28.396Z,6.35
2022-11-24T09:48:58.703Z,4.70
2022-11-24T09:51:29.381Z,4.50
2022-11-24T09:54:09.252Z,4.95
2022-11-24T09:56:38.898Z,5.03
2022-11-24T09:59:10.720Z,5.20
2022-11-24T10:01:41.583Z,5.03
2022-11-24T10:04:30.323Z,5.25
2022-11-24T10:07:28.171Z,5.30
2022-11-24T10:10:34.113Z,5.55
2022-11-24T10:13:42.784Z,5.72
2022-11-24T10:16:34.731Z,6.15
2022-11-24T10:19:36.327Z,4.75
2022-11-24T10:22:42.838Z,4.50
2022-11-24T10:25:25.962Z,6.45
2022-11-24T10:28:18.919Z,3.25
2022-11-24T10:30:45.773Z,5.35
2022-11-24T10:33:30.612Z,11.57
2022-11-24T10:36:09.642Z,4.32
2022-11-24T10:38:51.996Z,3.53
2022-11-24T10:41:31.211Z,5.70
2022-11-24T10:43:58.098Z,5.97
2022-11-24T10:46:28.469Z,4.88
2022-11-24T10:49:05.623Z,4.88
2022-11-24T10:51:51.110Z,4.95
2022-11-24T10:54:22.159Z,4.18
2022-11-24T10:56:51.968Z,4.70
2022-11-24T10:59:30.166Z,4.93
2022-11-24T11:01:56.895Z,4.75
2022-11-24T11:04:28.211Z,5.70
2022-11-24T11:07:27.991Z,6.47
2022-11-24T11:10:19.766Z,6.60
2022-11-24T11:12:46.825Z,5.65
2022-11-24T11:15:26.777Z,5.25
2022-11-24T11:18:01.178Z,5.38
2022-11-24T11:20:29.577Z,4.78
2022-11-24T11:22:58.802Z,6.32
2022-11-24T11:25:34.166Z,3.88
2022-11-24T11:28:34.261Z,9.68
2022-11-24T11:31:22.134Z,6.15
2022-11-24T11:34:26.632Z,6.43
2022-11-24T11:36:57.862Z,6.00
2022-11-24T11:39:30.193Z,6.18
2022-11-24T11:42:09.239Z,5.80
2022-11-24T11:44:44.212Z,6.25
2022-11-24T11:47:22.539Z,5.30
2022-11-24T11:49:50.068Z,5.15
2022-11-24T11:52:44.276Z,5.10
2022-11-24T11:55:31.752Z,4.20
2022-11-24T11:58:41.679Z,3.85
2022-11-24T12:01:26.653Z,4.15
2022-11-24T12:04:12.346Z,4.32
2022-11-24T12:07:06.608Z,4.13
2022-11-24T12:09:58.031Z,3.78
2022-11-24T12:13:10.193Z,3.70
2022-11-24T12:15:44.896Z,3.92
2022-11-24T12:18:59.998Z,4.10
2022-11-24T12:22:15.985Z,3.80
2022-11-24T12:25:03.283Z,3.83
2022-11-24T12:27:37.786Z,4.75
2022-11-24T12:30:12.500Z,3.85
2022-11-24T12:32:48.303Z,3.88
2022-11-24T12:35:35.108Z,4.43
2022-11-24T12:38:28.096Z,4.93
2022-11-24T12:43:57.791Z,3.58
2022-11-24T12:46:44.849Z,3.90
2022-11-24T12:49:30.097Z,3.35
2022-11-24T12:52:03.133Z,3.35
2022-11-24T12:54:38.784Z,3.60
2022-11-24T12:57:15.139Z,3.17
2022-11-24T12:59:50.786Z,3.83
2022-11-24T13:02:39.569Z,3.33
2022-11-24T13:06:07.682Z,5.72
2022-11-24T13:08:36.933Z,17.05
2022-11-24T13:11:21.790Z,15.15
2022-11-24T13:14:00.220Z,7.03
2022-11-24T13:16:37.128Z,4.72
2022-11-24T13:19:14.051Z,9.40
2022-11-24T13:21:40.636Z,6.80
2022-11-24T13:24:16.630Z,6.65
2022-11-24T13:26:45.132Z,5.25
2022-11-24T13:29:38.839Z,6.13
2022-11-24T13:32:05.337Z,6.63
2022-11-24T13:34:41.270Z,8.90
2022-11-24T13:37:31.869Z,13.80
2022-11-24T13:40:22.769Z,8.90
2022-11-24T13:42:58.790Z,7.32
2022-11-24T13:45:49.843Z,12.30
2022-11-24T13:48:19.764Z,13.43
2022-11-24T13:50:56.167Z,9.70
2022-11-24T13:53:36.733Z,8.85
2022-11-24T13:56:03.253Z,8.82
2022-11-24T13:58:44.729Z,8.48
2022-11-24T14:01:23.674Z,5.72
2022-11-24T14:07:07.796Z,7.53
2022-11-24T14:09:47.180Z,9.52
2022-11-24T14:12:14.885Z,8.48
2022-11-24T14:14:42.566Z,7.65
2022-11-24T14:17:28.179Z,5.65
2022-11-24T14:19:56.791Z,7.38
2022-11-24T14:22:34.705Z,5.97
2022-11-24T14:25:02.701Z,7.32
2022-11-24T14:27:38.213Z,6.70
2022-11-24T14:30:25.302Z,6.30
2022-11-24T14:33:03.605Z,6.70
2022-11-24T14:35:31.542Z,6.35
2022-11-24T14:38:02.219Z,6.43
2022-11-24T14:40:43.717Z,6.20
2022-11-24T14:43:30.364Z,5.13
2022-11-24T14:46:09.737Z,6.03
2022-11-24T14:48:39.263Z,4.97
2022-11-24T14:51:15.461Z,10.07
2022-11-24T14:53:47.172Z,11.20
2022-11-24T14:56:30.508Z,6.43
2022-11-24T14:58:59.165Z,9.73
2022-11-24T15:01:28.497Z,7.03
2022-11-24T15:04:32.467Z,6.10
2022-11-24T15:07:11.589Z,6.85
2022-11-24T15:09:49.178Z,9.30
2022-11-24T15:12:34.998Z,7.18
2022-11-24T15:15:16.092Z,7.97
2022-11-24T15:17:48.741Z,9.43
2022-11-24T15:20:28.393Z,11.57
2022-11-24T15:23:13.708Z,13.88
2022-11-24T15:25:40.282Z,7.13
2022-11-24T15:28:08.443Z,5.65
2022-11-24T15:30:36.618Z,5.40
2022-11-24T15:33:11.574Z,6.78
2022-11-24T15:35:38.235Z,6.60
2022-11-24T15:38:04.911Z,7.25
2022-11-24T15:40:31.749Z,7.10
2022-11-24T15:43:02.069Z,8.50
2022-11-24T15:45:34.371Z,8.50
2022-11-24T15:48:00.936Z,8.73
2022-11-24T15:50:27.601Z,8.57
2022-11-24T15:52:54.252Z,9.82
2022-11-24T15:55:22.372Z,9.30
2022-11-24T15:57:49.393Z,9.80
2022-11-24T16:00:22.702Z,27.60
2022-11-24T16:02:49.888Z,26.25
2022-11-24T16:05:17.689Z,17.77
2022-11-24T16:07:45.107Z,10.00
2022-11-24T16:10:30.045Z,7.22
2022-11-24T16:12:56.604Z,5.35
2022-11-24T16:15:23.239Z,5.63
2022-11-24T16:17:50.133Z,8.77
2022-11-24T16:20:16.978Z,8.75
2022-11-24T16:22:44.106Z,9.05
2022-11-24T16:25:11.562Z,6.75
2022-11-24T16:27:38.537Z,6.53
2022-11-24T16:30:06.693Z,7.88
2022-11-24T16:32:33.392Z,20.58
2022-11-24T16:34:59.974Z,5.28
2022-11-24T16:37:26.600Z,6.80
2022-11-24T16:39:53.158Z,4.63
2022-11-24T16:42:19.768Z,4.50
2022-11-24T16:44:46.390Z,4.28
2022-11-24T16:47:13.095Z,5.32
2022-11-24T16:49:39.776Z,6.40
2022-11-24T16:52:06.351Z,5.00
2022-11-24T16:54:33.169Z,6.07
2022-11-24T16:57:00.132Z,8.48
2022-11-24T16:59:26.667Z,6.90
2022-11-24T17:01:53.345Z,5.07
2022-11-24T17:04:20.025Z,5.40
2022-11-24T17:06:46.609Z,9.40
2022-11-24T17:09:13.206Z,5.38
2022-11-24T17:11:40.522Z,23.27
2022-11-24T17:14:07.076Z,7.40
2022-11-24T17:16:33.828Z,6.45
2022-11-24T17:19:00.540Z,6.80
2022-11-24T17:21:28.027Z,7.25
2022-11-24T17:24:05.319Z,7.57
2022-11-24T17:26:33.107Z,5.15
2022-11-24T17:28:59.694Z,5.60
2022-11-24T17:31:29.040Z,5.10
2022-11-24T17:33:58.054Z,4.78
2022-11-24T17:36:25.227Z,5.05
2022-11-24T17:38:51.917Z,5.75
2022-11-24T17:41:19.637Z,5.80
2022-11-24T17:43:50.424Z,4.95
2022-11-24T17:46:17.549Z,5.20
2022-11-24T17:48:44.280Z,5.00
2022-11-24T17:51:15.651Z,14.68
2022-11-24T17:53:43.914Z,14.65
2022-11-24T17:56:15.849Z,13.40
2022-11-24T17:58:43.264Z,11.85
2022-11-24T18:01:10.473Z,10.50
2022-11-24T18:03:39.435Z,9.07
2022-11-24T18:06:13.156Z,13.30
2022-11-24T18:08:41.785Z,10.38
2022-11-24T18:11:12.500Z,8.15
2022-11-24T18:13:56.691Z,12.25
2022-11-24T18:16:28.396Z,18.00
2022-11-24T18:19:07.899Z,11.23
2022-11-24T18:21:35.418Z,9.13
2022-11-24T18:24:02.032Z,10.40
2022-11-24T18:26:28.829Z,9.82
2022-11-24T18:28:55.501Z,9.95
2022-11-24T18:31:22.433Z,6.25
2022-11-24T18:33:49.494Z,7.22
2022-11-24T18:36:18.664Z,6.60
2022-11-24T18:38:45.342Z,7.03
2022-11-24T18:41:13.859Z,7.53
2022-11-24T18:43:40.990Z,9.40
2022-11-24T18:46:11.729Z,19.30
2022-11-24T18:48:38.434Z,14.23
2022-11-24T18:51:05.710Z,11.27
2022-11-24T18:53:32.433Z,11.65
2022-11-24T18:56:04.722Z,12.55
2022-11-24T18:58:33.043Z,15.50
2022-11-24T19:01:18.137Z,10.68
2022-11-24T19:03:49.073Z,9.35
2022-11-24T19:06:17.955Z,10.52
2022-11-24T19:08:45.444Z,11.48
2022-11-24T19:11:28.334Z,10.00
2022-11-24T19:13:56.926Z,11.13
2022-11-24T19:16:24.831Z,9.43
2022-11-24T19:18:54.304Z,9.02
2022-11-24T19:21:22.183Z,6.85
2022-11-24T19:23:49.561Z,9.18
2022-11-24T19:26:16.184Z,8.00
2022-11-24T19:28:42.811Z,11.00
2022-11-24T19:31:12.876Z,8.98
2022-11-24T19:33:39.975Z,7.90
2022-11-24T19:36:20.291Z,10.50
2022-11-24T19:38:52.256Z,11.23
2022-11-24T19:41:20.435Z,12.32
2022-11-24T19:43:48.159Z,7.57
2022-11-24T19:46:17.787Z,6.03
2022-11-24T19:48:46.708Z,5.55
2022-11-24T19:51:15.958Z,8.35
2022-11-24T19:53:43.803Z,7.35
2022-11-24T19:56:16.459Z,4.65
2022-11-24T19:58:43.760Z,6.32
2022-11-24T20:01:16.460Z,6.07
2022-11-24T20:03:45.439Z,6.38
2022-11-24T20:06:14.258Z,5.85
2022-11-24T20:08:42.446Z,4.90
2022-11-24T20:11:14.731Z,5.90
2022-11-24T20:13:43.576Z,6.72
2022-11-24T20:16:16.037Z,11.05
2022-11-24T20:18:44.873Z,7.03
2022-11-24T20:21:17.383Z,5.43
2022-11-24T20:23:45.985Z,6.47
2022-11-24T20:26:15.720Z,10.90
2022-11-24T20:28:43.214Z,10.80
2022-11-24T20:31:19.044Z,10.73
2022-11-24T20:33:46.065Z,10.27
2022-11-24T20:36:21.961Z,10.50
2022-11-24T20:38:49.902Z,8.02
2022-11-24T20:41:21.867Z,7.07
2022-11-24T20:43:49.996Z,8.38
2022-11-24T20:46:23.027Z,7.15
2022-11-24T20:48:50.474Z,7.32
2022-11-24T20:51:20.729Z,7.22
2022-11-24T20:53:48.542Z,11.32
2022-11-24T20:56:18.354Z,9.63
2022-11-24T20:58:45.180Z,6.70
2022-11-24T21:01:24.042Z,6.55
2022-11-24T21:03:59.221Z,6.20
2022-11-24T21:06:28.115Z,5.80
2022-11-24T21:09:00.483Z,5.38
2022-11-24T21:11:30.509Z,4.18
2022-11-24T21:13:57.343Z,4.60
2022-11-24T21:16:32.425Z,5.88
2022-11-24T21:19:01.904Z,4.90
2022-11-24T21:21:34.580Z,8.38
2022-11-24T21:24:05.512Z,7.60
2022-11-24T21:26:36.474Z,8.70
2022-11-24T21:29:03.996Z,5.55
2022-11-24T21:31:30.891Z,5.60
2022-11-24T21:33:57.517Z,7.78
2022-11-24T21:36:26.337Z,8.07
2022-11-24T21:38:55.183Z,9.98
2022-11-24T21:41:23.246Z,9.55
2022-11-24T21:43:50.247Z,10.63
2022-11-24T21:46:17.218Z,13.68
2022-11-24T21:48:44.415Z,13.95
2022-11-24T21:51:14.000Z,14.43
2022-11-24T21:53:41.210Z,14.07
2022-11-24T21:56:12.821Z,11.68
2022-11-24T21:58:50.005Z,13.02
2022-11-24T22:01:18.625Z,9.57
2022-11-24T22:03:45.898Z,8.48
2022-11-24T22:06:13.132Z,10.15
2022-11-24T22:08:39.734Z,11.30
2022-11-24T22:11:15.143Z,9.93
2022-11-24T22:13:42.729Z,9.68
2022-11-24T22:16:12.814Z,9.35
2022-11-24T22:18:41.947Z,10.18
2022-11-24T22:21:12.293Z,9.00
2022-11-24T22:23:39.011Z,7.43
2022-11-24T22:26:17.509Z,6.75
2022-11-24T22:28:45.355Z,5.25
2022-11-24T22:31:17.950Z,5.55
2022-11-24T22:33:45.340Z,5.10
2022-11-24T22:36:13.887Z,7.75
2022-11-24T22:38:40.936Z,8.52
2022-11-24T22:41:10.894Z,11.55
2022-11-24T22:43:39.746Z,9.45
2022-11-24T22:46:12.452Z,7.22
2022-11-24T22:48:40.309Z,6.18
2022-11-24T22:51:09.260Z,5.30
2022-11-24T22:53:35.953Z,6.38
2022-11-24T22:56:09.859Z,6.07
2022-11-24T22:58:37.044Z,4.85
2022-11-24T23:01:08.501Z,5.03
2022-11-24T23:03:35.875Z,4.80
2022-11-24T23:06:04.448Z,5.45
2022-11-24T23:08:33.443Z,4.45
2022-11-24T23:11:07.936Z,5.50
2022-11-24T23:13:35.258Z,5.60
2022-11-24T23:16:13.600Z,5.85
2022-11-24T23:18:40.931Z,6.70
2022-11-24T23:21:12.019Z,6.22
2022-11-24T23:23:38.796Z,5.47
2022-11-24T23:26:08.496Z,6.05
2022-11-24T23:28:35.142Z,6.40
2022-11-24T23:31:06.873Z,5.40
2022-11-24T23:33:34.124Z,5.47
2022-11-24T23:36:12.690Z,6.38
2022-11-24T23:38:40.110Z,5.93
2022-11-24T23:41:10.881Z,4.43
2022-11-24T23:43:39.979Z,5.10
2022-11-24T23:46:10.862Z,4.40
2022-11-24T23:48:38.570Z,4.28
2022-11-24T23:51:24.954Z,4.35
2022-11-24T23:53:52.280Z,4.15
2022-11-24T23:56:39.113Z,4.70
2022-11-24T23:59:05.711Z,3.88
